createdAt,value
2022-12-04T00:01:28.092Z,8.75
2022-12-04T00:03:57.260Z,9.10
2022-12-04T00:06:25.891Z,8.50
2022-12-04T00:08:54.623Z,9.45
2022-12-04T00:11:25.007Z,9.07
2022-12-04T00:13:54.606Z,8.80
2022-12-04T00:16:24.896Z,8.50
2022-12-04T00:18:53.518Z,9.13
2022-12-04T00:21:22.080Z,8.90
2022-12-04T00:23:50.821Z,9.60
2022-12-04T00:26:23.166Z,8.60
2022-12-04T00:28:52.668Z,8.85
2022-12-04T00:31:23.966Z,8.95
2022-12-04T00:33:52.957Z,8.88
2022-12-04T00:36:23.021Z,8.48
2022-12-04T00:38:51.364Z,8.88
2022-12-04T00:41:22.647Z,9.10
2022-12-04T00:43:50.819Z,8.73
2022-12-04T00:46:23.289Z,9.05
2022-12-04T00:48:52.021Z,8.60
2022-12-04T00:51:22.916Z,8.63
2022-12-04T00:53:51.821Z,8.23
2022-12-04T00:56:24.635Z,9.50
2022-12-04T00:58:54.118Z,8.00
2022-12-04T01:01:24.490Z,8.93
2022-12-04T01:03:53.497Z,8.57
2022-12-04T01:06:23.130Z,9.73
2022-12-04T01:08:52.289Z,9.45
2022-12-04T01:11:21.782Z,8.85
2022-12-04T01:13:52.364Z,7.90
2022-12-04T01:16:24.133Z,8.95
2022-12-04T01:18:52.945Z,8.55
2022-12-04T01:21:21.392Z,8.00
2022-12-04T01:23:49.702Z,8.65
2022-12-04T01:26:20.164Z,8.35
2022-12-04T01:28:48.254Z,8.90
2022-12-04T01:31:19.410Z,7.90
2022-12-04T01:33:50.249Z,8.30
2022-12-04T01:36:21.712Z,8.85
2022-12-04T01:38:50.278Z,8.80
2022-12-04T01:41:21.118Z,8.50
2022-12-04T01:44:11.202Z,8.57
2022-12-04T01:46:39.440Z,8.50
2022-12-04T01:49:12.096Z,8.07
2022-12-04T01:51:43.219Z,8.52
2022-12-04T01:54:16.223Z,8.45
2022-12-04T01:56:47.149Z,8.77
2022-12-04T01:59:18.506Z,8.27
2022-12-04T02:01:58.271Z,8.25
2022-12-04T02:04:28.030Z,7.95
2022-12-04T02:06:56.161Z,8.52
2022-12-04T02:09:26.904Z,8.50
2022-12-04T02:12:03.185Z,7.88
2022-12-04T02:14:38.845Z,8.15
2022-12-04T02:17:16.241Z,9.07
2022-12-04T02:20:13.122Z,8.38
2022-12-04T02:23:00.970Z,8.13
2022-12-04T02:25:37.174Z,8.40
2022-12-04T02:28:12.797Z,8.95
2022-12-04T02:30:43.807Z,8.00
2022-12-04T02:33:20.119Z,8.23
2022-12-04T02:35:53.070Z,8.13
2022-12-04T02:38:28.013Z,7.88
2022-12-04T02:41:00.110Z,8.07
2022-12-04T02:43:33.862Z,7.78
2022-12-04T02:46:06.917Z,8.13
2022-12-04T02:48:41.500Z,7.95
2022-12-04T02:51:15.476Z,7.70
2022-12-04T02:53:49.601Z,6.95
2022-12-04T02:56:23.886Z,7.90
2022-12-04T02:58:57.057Z,7.43
2022-12-04T03:01:29.337Z,7.50
2022-12-04T03:04:03.158Z,7.90
2022-12-04T03:06:34.999Z,6.88
2022-12-04T03:09:09.419Z,7.78
2022-12-04T03:11:39.759Z,7.97
2022-12-04T03:14:14.130Z,7.38
2022-12-04T03:16:43.924Z,8.15
2022-12-04T03:19:16.323Z,7.32
2022-12-04T03:21:50.645Z,7.63
2022-12-04T03:24:23.656Z,8.05
2022-12-04T03:26:57.927Z,7.05
2022-12-04T03:29:34.318Z,7.50
2022-12-04T03:32:12.070Z,6.65
2022-12-04T03:34:46.936Z,7.65
2022-12-04T03:37:19.197Z,7.50
2022-12-04T03:39:56.738Z,7.22
2022-12-04T03:42:28.030Z,7.13
2022-12-04T03:45:04.306Z,7.22
2022-12-04T03:47:37.812Z,7.32
2022-12-04T03:50:11.585Z,6.93
2022-12-04T03:52:47.539Z,6.57
2022-12-04T03:55:21.436Z,7.22
2022-12-04T03:57:54.848Z,6.75
2022-12-04T04:00:24.800Z,7.28
2022-12-04T04:03:00.906Z,6.75
2022-12-04T04:05:31.399Z,7.95
2022-12-04T04:08:17.132Z,7.07
2022-12-04T04:10:45.949Z,7.43
2022-12-04T04:13:36.559Z,7.53
2022-12-04T04:16:24.980Z,7.55
2022-12-04T04:19:11.923Z,6.93
2022-12-04T04:22:00.019Z,7.00
2022-12-04T04:24:35.336Z,6.45
2022-12-04T04:27:04.226Z,6.80
2022-12-04T04:29:32.588Z,7.35
2022-12-04T04:32:07.364Z,7.38
2022-12-04T04:34:40.963Z,6.90
2022-12-04T04:37:17.756Z,7.38
2022-12-04T04:39:54.123Z,6.80
2022-12-04T04:42:26.543Z,7.50
2022-12-04T04:45:01.696Z,7.57
2022-12-04T04:47:37.375Z,7.25
2022-12-04T04:50:10.340Z,6.40
2022-12-04T04:52:40.515Z,6.97
2022-12-04T04:55:10.006Z,7.07
2022-12-04T04:57:38.666Z,7.07
2022-12-04T05:00:09.719Z,7.05
2022-12-04T05:02:39.403Z,6.80
2022-12-04T05:05:08.275Z,8.25
2022-12-04T05:07:36.457Z,7.05
2022-12-04T05:10:09.300Z,7.28
2022-12-04T05:12:37.603Z,7.57
2022-12-04T05:15:06.657Z,7.70
2022-12-04T05:17:36.506Z,7.22
2022-12-04T05:20:05.926Z,6.90
2022-12-04T05:22:35.795Z,7.20
2022-12-04T05:25:04.900Z,7.35
2022-12-04T05:27:33.489Z,7.53
2022-12-04T05:30:01.659Z,6.75
2022-12-04T05:32:32.293Z,7.50
2022-12-04T05:35:00.439Z,7.55
2022-12-04T05:37:29.903Z,7.03
2022-12-04T05:40:00.237Z,8.32
2022-12-04T05:42:28.240Z,7.20
2022-12-04T05:44:56.547Z,7.50
2022-12-04T05:47:24.707Z,6.70
2022-12-04T05:49:52.904Z,7.22
2022-12-04T05:52:21.133Z,7.50
2022-12-04T05:54:50.597Z,6.95
2022-12-04T05:57:18.600Z,7.10
2022-12-04T05:59:46.599Z,6.60
2022-12-04T06:02:14.677Z,7.10
2022-12-04T06:04:42.711Z,7.28
2022-12-04T06:07:11.085Z,6.43
2022-12-04T06:09:39.393Z,6.50
2022-12-04T06:12:08.854Z,6.80
2022-12-04T06:14:39.740Z,6.57
2022-12-04T06:17:10.559Z,6.15
2022-12-04T06:19:38.554Z,6.32
2022-12-04T06:22:06.598Z,6.35
2022-12-04T06:24:34.718Z,6.53
2022-12-04T06:29:52.121Z,6.75
2022-12-04T06:32:21.965Z,7.13
2022-12-04T06:34:52.642Z,17.15
2022-12-04T06:37:23.523Z,11.25
2022-12-04T06:39:51.613Z,7.53
2022-12-04T06:42:19.662Z,5.95
2022-12-04T06:44:47.710Z,6.15
2022-12-04T06:47:17.197Z,7.75
2022-12-04T06:49:49.689Z,9.70
2022-12-04T06:52:17.910Z,9.27
2022-12-04T06:54:45.875Z,10.07
2022-12-04T06:57:13.852Z,7.50
2022-12-04T06:59:44.141Z,8.38
2022-12-04T07:02:12.380Z,9.25
2022-12-04T07:04:41.849Z,7.70
2022-12-04T07:07:10.629Z,7.60
2022-12-04T07:09:38.862Z,7.25
2022-12-04T07:12:07.432Z,8.02
2022-12-04T07:14:35.501Z,6.68
2022-12-04T07:17:03.633Z,7.35
2022-12-04T07:19:31.719Z,6.80
2022-12-04T07:22:01.167Z,7.07
2022-12-04T07:24:31.556Z,7.25
2022-12-04T07:26:59.614Z,7.55
2022-12-04T07:29:27.738Z,10.70
2022-12-04T07:31:55.898Z,9.68
2022-12-04T07:34:23.950Z,7.03
2022-12-04T07:36:52.157Z,6.95
2022-12-04T07:39:21.643Z,7.20
2022-12-04T07:41:52.012Z,6.78
2022-12-04T07:44:20.089Z,7.88
2022-12-04T07:46:48.175Z,7.40
2022-12-04T07:49:17.290Z,21.40
2022-12-04T07:51:45.384Z,19.40
2022-12-04T07:54:13.555Z,11.10
2022-12-04T07:56:42.959Z,10.18
2022-12-04T07:59:13.168Z,6.30
2022-12-04T08:01:41.261Z,8.45
2022-12-04T08:04:11.539Z,9.38
2022-12-04T08:06:39.926Z,5.78
2022-12-04T08:09:10.335Z,9.90
2022-12-04T08:11:38.620Z,7.80
2022-12-04T08:14:09.640Z,8.43
2022-12-04T08:16:38.181Z,7.10
2022-12-04T08:19:06.569Z,6.50
2022-12-04T08:21:35.117Z,5.72
2022-12-04T08:24:03.255Z,6.43
2022-12-04T08:26:33.605Z,7.18
2022-12-04T08:29:02.583Z,8.55
2022-12-04T08:31:33.919Z,6.43
2022-12-04T08:34:04.378Z,7.43
2022-12-04T08:36:36.318Z,7.40
2022-12-04T08:39:05.135Z,6.35
2022-12-04T08:41:33.547Z,7.07
2022-12-04T08:44:03.940Z,6.68
2022-12-04T08:46:33.490Z,6.07
2022-12-04T08:49:01.703Z,5.93
2022-12-04T08:51:31.281Z,6.10
2022-12-04T08:54:05.927Z,6.50
2022-12-04T08:56:35.064Z,6.20
2022-12-04T08:59:03.101Z,6.32
2022-12-04T09:01:33.425Z,6.30
2022-12-04T09:04:01.605Z,5.78
2022-12-04T09:06:29.784Z,5.93
2022-12-04T09:08:58.589Z,6.40
2022-12-04T09:11:28.421Z,5.90
2022-12-04T09:13:56.851Z,6.18
2022-12-04T09:16:27.139Z,5.78
2022-12-04T09:18:57.518Z,6.40
2022-12-04T09:21:26.293Z,6.40
2022-12-04T09:23:54.408Z,5.90
2022-12-04T09:26:25.437Z,6.75
2022-12-04T09:29:03.125Z,5.95
2022-12-04T09:31:33.239Z,6.18
2022-12-04T09:34:03.672Z,9.50
2022-12-04T09:36:32.011Z,6.50
2022-12-04T09:39:00.225Z,7.18
2022-12-04T09:41:47.166Z,7.32
2022-12-04T09:44:19.888Z,5.72
2022-12-04T09:46:52.831Z,6.25
2022-12-04T09:49:26.468Z,7.47
2022-12-04T09:51:57.541Z,7.50
2022-12-04T09:54:30.884Z,8.85
2022-12-04T09:57:02.365Z,10.48
2022-12-04T09:59:33.199Z,10.05
2022-12-04T10:02:11.284Z,12.60
2022-12-04T10:04:40.945Z,7.18
2022-12-04T10:07:17.009Z,6.55
2022-12-04T10:09:51.388Z,6.15
2022-12-04T10:12:26.047Z,6.22
2022-12-04T10:15:12.718Z,5.97
2022-12-04T10:17:57.802Z,5.28
2022-12-04T10:20:44.156Z,6.18
2022-12-04T10:23:23.625Z,6.05
2022-12-04T10:25:54.846Z,6.18
2022-12-04T10:28:32.284Z,6.15
2022-12-04T10:31:03.125Z,5.28
2022-12-04T10:33:38.057Z,5.28
2022-12-04T10:36:14.308Z,6.18
2022-12-04T10:38:46.817Z,7.28
2022-12-04T10:41:22.512Z,6.50
2022-12-04T10:43:51.815Z,5.35
2022-12-04T10:46:23.817Z,5.85
2022-12-04T10:48:54.715Z,5.47
2022-12-04T10:51:24.158Z,5.00
2022-12-04T10:53:53.042Z,5.43
2022-12-04T10:56:22.986Z,5.05
2022-12-04T10:58:58.892Z,5.38
2022-12-04T11:01:28.572Z,5.40
2022-12-04T11:04:01.747Z,5.13
2022-12-04T11:06:31.781Z,5.38
2022-12-04T11:09:00.814Z,5.13
2022-12-04T11:11:31.223Z,5.47
2022-12-04T11:14:04.568Z,5.78
2022-12-04T11:16:36.485Z,4.88
2022-12-04T11:19:05.042Z,5.47
2022-12-04T11:21:34.475Z,5.20
2022-12-04T11:24:02.878Z,4.90
2022-12-04T11:26:34.813Z,4.90
2022-12-04T11:29:05.214Z,5.18
2022-12-04T11:31:34.720Z,4.88
2022-12-04T11:34:05.890Z,5.47
2022-12-04T11:36:40.403Z,5.55
2022-12-04T11:39:17.676Z,5.85
2022-12-04T11:41:45.927Z,5.72
2022-12-04T11:44:27.898Z,5.95
2022-12-04T11:46:58.118Z,5.95
2022-12-04T11:49:28.672Z,5.93
2022-12-04T11:52:13.015Z,5.80
2022-12-04T11:54:54.002Z,5.20
2022-12-04T11:57:31.391Z,6.05
2022-12-04T12:00:06.769Z,6.10
2022-12-04T12:02:52.438Z,9.70
2022-12-04T12:05:36.438Z,8.38
2022-12-04T12:08:15.857Z,15.43
2022-12-04T12:10:52.246Z,7.60
2022-12-04T12:13:35.051Z,6.55
2022-12-04T12:16:13.132Z,9.40
2022-12-04T12:18:57.159Z,8.63
2022-12-04T12:21:27.738Z,8.00
2022-12-04T12:24:10.971Z,9.95
2022-12-04T12:26:48.571Z,7.28
2022-12-04T12:32:12.242Z,6.07
2022-12-04T12:34:43.003Z,6.47
2022-12-04T12:37:19.655Z,5.63
2022-12-04T12:39:56.120Z,5.83
2022-12-04T12:42:29.611Z,7.10
2022-12-04T12:45:03.571Z,6.45
2022-12-04T12:47:39.115Z,5.88
2022-12-04T12:50:14.901Z,5.28
2022-12-04T12:52:48.732Z,6.57
2022-12-04T12:55:24.678Z,5.80
2022-12-04T12:58:01.663Z,5.85
2022-12-04T13:00:33.521Z,9.02
2022-12-04T13:03:05.917Z,8.60
2022-12-04T13:05:38.704Z,8.13
2022-12-04T13:08:21.637Z,8.45
2022-12-04T13:10:59.710Z,7.13
2022-12-04T13:13:30.598Z,5.93
2022-12-04T13:16:05.389Z,5.95
2022-12-04T13:18:36.819Z,5.75
2022-12-04T13:21:07.736Z,6.25
2022-12-04T13:23:47.959Z,6.40
2022-12-04T13:26:29.715Z,7.25
2022-12-04T13:29:09.860Z,6.03
2022-12-04T13:31:53.193Z,6.88
2022-12-04T13:34:48.486Z,6.60
2022-12-04T13:37:38.545Z,6.80
2022-12-04T13:40:30.011Z,8.05
2022-12-04T13:43:29.976Z,6.15
2022-12-04T13:46:00.566Z,6.05
2022-12-04T13:48:31.845Z,6.78
2022-12-04T13:51:08.807Z,6.55
2022-12-04T13:53:40.299Z,5.88
2022-12-04T13:56:24.270Z,6.25
2022-12-04T13:59:04.098Z,6.43
2022-12-04T14:01:39.200Z,6.55
2022-12-04T14:04:08.138Z,6.22
2022-12-04T14:06:39.637Z,6.47
2022-12-04T14:09:19.481Z,6.20
2022-12-04T14:11:51.993Z,6.07
2022-12-04T14:14:27.713Z,6.45
2022-12-04T14:16:57.228Z,5.95
2022-12-04T14:19:32.412Z,5.50
2022-12-04T14:22:01.063Z,6.38
2022-12-04T14:24:36.180Z,6.53
2022-12-04T14:27:33.058Z,6.28
2022-12-04T14:30:04.147Z,6.50
2022-12-04T14:32:35.294Z,6.20
2022-12-04T14:35:13.393Z,6.18
2022-12-04T14:37:49.307Z,6.15
2022-12-04T14:40:23.497Z,6.82
2022-12-04T14:42:53.037Z,7.00
2022-12-04T14:45:30.355Z,6.97
2022-12-04T14:48:24.749Z,6.80
2022-12-04T14:51:02.489Z,6.07
2022-12-04T14:53:40.210Z,7.40
2022-12-04T14:56:24.139Z,6.85
2022-12-04T14:58:52.688Z,7.18
2022-12-04T15:01:29.086Z,6.85
2022-12-04T15:04:01.664Z,7.80
2022-12-04T15:06:34.244Z,6.72
2022-12-04T15:09:19.023Z,7.35
2022-12-04T15:12:05.440Z,7.43
2022-12-04T15:14:42.200Z,7.00
2022-12-04T15:17:13.540Z,8.10
2022-12-04T15:19:41.930Z,6.90
2022-12-04T15:22:18.276Z,7.65
2022-12-04T15:24:46.493Z,8.02
2022-12-04T15:27:17.176Z,7.93
2022-12-04T15:29:48.371Z,7.38
2022-12-04T15:32:21.084Z,7.28
2022-12-04T15:34:52.853Z,7.57
2022-12-04T15:37:23.699Z,7.40
2022-12-04T15:39:52.920Z,7.78
2022-12-04T15:42:27.306Z,8.00
2022-12-04T15:45:01.170Z,8.07
2022-12-04T15:47:32.919Z,8.60
2022-12-04T15:50:10.102Z,8.30
2022-12-04T15:52:39.171Z,7.80
2022-12-04T15:55:09.782Z,7.50
2022-12-04T15:57:40.362Z,8.10
2022-12-04T16:00:23.803Z,8.25
2022-12-04T16:02:53.514Z,8.18
2022-12-04T16:05:32.728Z,8.45
2022-12-04T16:08:02.941Z,8.93
2022-12-04T16:10:33.003Z,8.25
2022-12-04T16:13:02.898Z,8.82
2022-12-04T16:15:38.126Z,9.60
2022-12-04T16:18:11.872Z,8.55
2022-12-04T16:20:41.263Z,8.50
2022-12-04T16:23:11.026Z,8.70
2022-12-04T16:25:39.089Z,8.00
2022-12-04T16:28:07.169Z,9.05
2022-12-04T16:30:36.880Z,8.77
2022-12-04T16:33:05.201Z,8.98
2022-12-04T16:35:34.589Z,8.15
2022-12-04T16:38:04.731Z,7.88
2022-12-04T16:40:32.877Z,8.02
2022-12-04T16:43:01.000Z,8.32
2022-12-04T16:45:33.180Z,8.60
2022-12-04T16:48:01.404Z,8.57
2022-12-04T16:50:29.605Z,8.00
2022-12-04T16:52:59.631Z,8.70
2022-12-04T16:55:32.346Z,9.05
2022-12-04T16:58:00.580Z,8.75
2022-12-04T17:00:28.933Z,9.10
2022-12-04T17:02:57.390Z,8.63
2022-12-04T17:05:26.804Z,8.00
2022-12-04T17:07:55.357Z,9.23
2022-12-04T17:10:27.052Z,8.50
2022-12-04T17:12:55.675Z,9.18
2022-12-04T17:15:23.872Z,9.52
2022-12-04T17:17:52.383Z,8.60
2022-12-04T17:20:21.602Z,8.43
2022-12-04T17:22:50.338Z,8.82
2022-12-04T17:25:18.736Z,9.02
2022-12-04T17:27:48.218Z,8.15
2022-12-04T17:30:16.911Z,8.52
2022-12-04T17:32:46.155Z,9.18
2022-12-04T17:35:14.422Z,9.30
2022-12-04T17:37:42.481Z,9.15
2022-12-04T17:40:13.004Z,9.02
2022-12-04T17:42:41.534Z,8.95
2022-12-04T17:45:14.315Z,8.90
2022-12-04T17:47:42.593Z,8.93
2022-12-04T17:50:11.349Z,8.88
2022-12-04T17:52:39.471Z,11.25
2022-12-04T17:55:10.214Z,11.75
2022-12-04T17:57:38.264Z,11.23
2022-12-04T18:00:07.885Z,10.65
2022-12-04T18:02:42.585Z,9.13
2022-12-04T18:05:10.918Z,10.23
2022-12-04T18:07:39.352Z,9.35
2022-12-04T18:10:08.640Z,11.02
2022-12-04T18:12:36.811Z,10.20
2022-12-04T18:15:05.664Z,10.90
2022-12-04T18:17:33.884Z,11.52
2022-12-04T18:20:05.325Z,11.95
2022-12-04T18:22:34.098Z,12.10
2022-12-04T18:25:02.569Z,12.38
2022-12-04T18:27:31.255Z,12.55
2022-12-04T18:30:01.607Z,12.05
2022-12-04T18:32:29.838Z,12.50
2022-12-04T18:34:58.555Z,12.73
2022-12-04T18:37:28.454Z,12.60
2022-12-04T18:40:03.366Z,12.85
2022-12-04T18:42:34.851Z,13.43
2022-12-04T18:45:03.500Z,12.77
2022-12-04T18:47:34.336Z,13.70
2022-12-04T18:50:02.467Z,13.80
2022-12-04T18:52:35.315Z,13.27
2022-12-04T18:55:03.538Z,13.70
2022-12-04T18:57:31.732Z,14.10
2022-12-04T19:00:00.100Z,14.48
2022-12-04T19:02:28.368Z,15.27
2022-12-04T19:04:59.152Z,14.55
2022-12-04T19:07:27.614Z,14.55
2022-12-04T19:10:12.764Z,14.55
2022-12-04T19:12:40.909Z,14.00
2022-12-04T19:15:09.744Z,15.23
2022-12-04T19:17:38.034Z,14.85
2022-12-04T19:20:07.360Z,15.07
2022-12-04T19:22:35.637Z,15.02
2022-12-04T19:25:06.566Z,14.50
2022-12-04T19:27:35.391Z,14.25
2022-12-04T19:30:03.899Z,15.52
2022-12-04T19:32:33.392Z,14.05
2022-12-04T19:35:01.529Z,14.50
2022-12-04T19:37:31.778Z,15.40
2022-12-04T19:40:00.008Z,15.57
2022-12-04T19:42:31.581Z,14.90
2022-12-04T19:44:59.898Z,14.68
2022-12-04T19:47:27.990Z,14.40
2022-12-04T19:49:56.613Z,14.48
2022-12-04T19:52:25.101Z,14.20
2022-12-04T19:54:53.343Z,15.10
2022-12-04T19:57:21.450Z,13.93
2022-12-04T19:59:51.063Z,14.32
2022-12-04T20:02:19.778Z,14.15
2022-12-04T20:04:48.036Z,14.85
2022-12-04T20:07:16.357Z,14.55
2022-12-04T20:09:52.181Z,15.40
2022-12-04T20:12:20.847Z,14.38
2022-12-04T20:14:50.441Z,14.77
2022-12-04T20:17:18.740Z,14.93
2022-12-04T20:19:47.002Z,15.07
2022-12-04T20:22:15.198Z,15.40
2022-12-04T20:24:43.845Z,15.45
2022-12-04T20:27:12.020Z,14.68
2022-12-04T20:29:40.101Z,16.63
2022-12-04T20:32:09.536Z,15.50
2022-12-04T20:34:43.254Z,15.50
2022-12-04T20:37:12.159Z,15.45
2022-12-04T20:39:40.499Z,15.73
2022-12-04T20:42:08.582Z,15.63
2022-12-04T20:44:36.872Z,16.55
2022-12-04T20:47:05.034Z,16.02
2022-12-04T20:49:34.569Z,15.45
2022-12-04T20:52:03.036Z,15.75
2022-12-04T20:54:32.066Z,16.00
2022-12-04T20:57:02.468Z,16.73
2022-12-04T20:59:30.586Z,14.88
2022-12-04T21:01:59.492Z,15.10
2022-12-04T21:04:27.679Z,15.27
2022-12-04T21:06:57.698Z,15.43
2022-12-04T21:09:26.677Z,14.85
2022-12-04T21:11:56.153Z,15.25
2022-12-04T21:14:47.194Z,15.15
2022-12-04T21:17:18.806Z,15.23
2022-12-04T21:19:48.378Z,15.60
2022-12-04T21:22:19.192Z,16.10
2022-12-04T21:24:47.354Z,15.88
2022-12-04T21:27:21.291Z,14.95
2022-12-04T21:29:50.559Z,15.98
2022-12-04T21:32:19.866Z,15.68
2022-12-04T21:34:48.021Z,15.98
2022-12-04T21:37:17.644Z,15.25
2022-12-04T21:39:45.815Z,15.90
2022-12-04T21:42:31.884Z,14.95
2022-12-04T21:45:00.628Z,16.15
2022-12-04T21:47:29.075Z,16.25
2022-12-04T21:49:57.706Z,16.50
2022-12-04T21:52:30.498Z,15.25
2022-12-04T21:54:58.887Z,16.40
2022-12-04T21:57:29.439Z,14.85
2022-12-04T21:59:57.822Z,15.77
2022-12-04T22:02:28.658Z,15.52
2022-12-04T22:04:56.708Z,15.77
2022-12-04T22:07:24.909Z,15.88
2022-12-04T22:09:54.605Z,16.63
2022-12-04T22:15:11.652Z,19.10
2022-12-04T22:17:39.737Z,17.50
2022-12-04T22:20:09.033Z,17.15
2022-12-04T22:22:37.056Z,15.45
2022-12-04T22:25:07.321Z,16.27
2022-12-04T22:27:35.487Z,15.40
2022-12-04T22:30:04.101Z,15.80
2022-12-04T22:32:32.533Z,16.67
2022-12-04T22:35:00.594Z,16.90
2022-12-04T22:37:28.624Z,16.35
2022-12-04T22:39:56.950Z,20.38
2022-12-04T22:42:26.504Z,16.25
2022-12-04T22:44:56.900Z,17.13
2022-12-04T22:47:25.224Z,16.45
2022-12-04T22:49:53.274Z,16.35
2022-12-04T22:52:21.306Z,16.90
2022-12-04T22:54:51.273Z,15.48
2022-12-04T22:57:19.868Z,16.13
2022-12-04T22:59:49.229Z,15.32
2022-12-04T23:02:17.394Z,15.82
2022-12-04T23:04:45.435Z,15.95
2022-12-04T23:07:13.603Z,15.60
2022-12-04T23:09:41.845Z,14.88
2022-12-04T23:12:10.154Z,14.52
2022-12-04T23:14:38.204Z,14.85
2022-12-04T23:17:07.898Z,16.48
2022-12-04T23:19:36.024Z,15.18
2022-12-04T23:22:06.303Z,15.98
2022-12-04T23:24:37.947Z,15.73
2022-12-04T23:27:06.003Z,14.82
2022-12-04T23:29:52.807Z,15.32
2022-12-04T23:32:23.090Z,15.05
2022-12-04T23:34:52.945Z,16.00
2022-12-04T23:37:21.046Z,15.38
2022-12-04T23:39:49.085Z,15.40
2022-12-04T23:42:17.123Z,16.27
2022-12-04T23:44:45.346Z,16.17
2022-12-04T23:47:13.570Z,16.48
2022-12-04T23:50:32.892Z,15.27
2022-12-04T23:53:02.555Z,15.98
2022-12-04T23:55:34.234Z,16.38
2022-12-04T23:58:03.148Z,15.65
